createdAt,value
2017-06-08T00:00:55.314Z,10.82
2017-06-08T00:02:05.573Z,10.87
2017-06-08T00:03:15.833Z,10.84
2017-06-08T00:04:26.090Z,10.9
2017-06-08T00:05:36.062Z,10.84
2017-06-08T00:06:46.005Z,10.83
2017-06-08T00:07:55.960Z,10.77
2017-06-08T00:09:06.223Z,10.82
2017-06-08T00:10:16.491Z,10.84
2017-06-08T00:11:26.754Z,10.87
2017-06-08T00:12:36.392Z,10.84
2017-06-08T00:13:46.343Z,10.82
2017-06-08T00:14:56.605Z,10.92
2017-06-08T00:16:06.865Z,10.87
2017-06-08T00:17:17.138Z,10.84
2017-06-08T00:18:27.442Z,10.86
2017-06-08T00:19:37.391Z,10.84
2017-06-08T00:20:47.652Z,10.89
2017-06-08T00:21:57.598Z,10.86
2017-06-08T00:23:07.856Z,10.82
2017-06-08T00:24:17.797Z,10.84
2017-06-08T00:25:28.062Z,10.86
2017-06-08T00:26:38.339Z,10.86
2017-06-08T00:27:48.598Z,10.83
2017-06-08T00:28:58.857Z,10.84
2017-06-08T00:30:09.119Z,10.83
2017-06-08T00:31:19.071Z,10.83
2017-06-08T00:32:29.338Z,10.83
2017-06-08T00:33:39.595Z,10.89
2017-06-08T00:34:49.539Z,10.84
2017-06-08T00:35:59.837Z,10.84
2017-06-08T00:37:10.101Z,10.86
2017-06-08T00:38:20.361Z,10.82
2017-06-08T00:39:30.621Z,10.84
2017-06-08T00:40:40.893Z,10.86
2017-06-08T00:41:50.845Z,10.89
2017-06-08T00:43:00.834Z,10.82
2017-06-08T00:44:10.467Z,10.9
2017-06-08T00:45:20.411Z,10.87
2017-06-08T00:46:30.671Z,10.84
2017-06-08T00:47:40.935Z,10.9
2017-06-08T00:48:50.886Z,10.89
2017-06-08T00:50:01.147Z,10.83
2017-06-08T00:51:11.098Z,10.87
2017-06-08T00:52:21.359Z,10.89
2017-06-08T00:53:31.628Z,10.9
2017-06-08T00:54:41.582Z,10.83
2017-06-08T00:55:51.844Z,10.87
2017-06-08T00:57:01.790Z,10.86
2017-06-08T00:58:10.797Z,10.86
2017-06-08T00:59:21.059Z,10.84
2017-06-08T01:00:31.007Z,10.87
2017-06-08T01:01:40.951Z,10.82
2017-06-08T01:02:51.212Z,10.84
2017-06-08T01:04:00.882Z,10.86
2017-06-08T01:05:11.146Z,10.84
2017-06-08T01:06:21.404Z,10.83
2017-06-08T01:07:31.040Z,10.87
2017-06-08T01:08:40.987Z,10.89
2017-06-08T01:09:50.942Z,10.72
2017-06-08T01:11:01.195Z,10.79
2017-06-08T01:12:11.144Z,10.8
2017-06-08T01:13:21.411Z,10.76
2017-06-08T01:14:31.361Z,10.82
2017-06-08T01:15:41.350Z,10.72
2017-06-08T01:16:51.611Z,10.8
2017-06-08T01:18:01.874Z,10.84
2017-06-08T01:19:12.135Z,10.8
2017-06-08T01:20:22.402Z,10.8
2017-06-08T01:21:32.350Z,10.79
2017-06-08T01:22:42.617Z,10.82
2017-06-08T01:23:52.883Z,10.8
2017-06-08T01:25:03.139Z,10.76
2017-06-08T01:26:13.081Z,10.69
2017-06-08T01:27:23.028Z,10.68
2017-06-08T01:28:33.281Z,10.82
2017-06-08T01:29:43.542Z,10.68
2017-06-08T01:30:53.179Z,10.75
2017-06-08T01:32:03.440Z,10.76
2017-06-08T01:33:13.708Z,10.75
2017-06-08T01:34:23.971Z,10.79
2017-06-08T01:35:34.228Z,10.75
2017-06-08T01:36:44.170Z,10.76
2017-06-08T01:37:54.433Z,10.71
2017-06-08T01:39:04.387Z,10.71
2017-06-08T01:40:14.349Z,10.71
2017-06-08T01:41:24.643Z,10.71
2017-06-08T01:42:34.894Z,10.67
2017-06-08T01:43:44.847Z,10.75
2017-06-08T01:44:55.116Z,10.77
2017-06-08T01:46:05.075Z,10.71
2017-06-08T01:47:15.018Z,10.8
2017-06-08T01:48:25.276Z,10.71
2017-06-08T01:49:35.534Z,10.86
2017-06-08T01:50:45.161Z,10.86
2017-06-08T01:51:55.427Z,10.82
2017-06-08T01:53:05.687Z,10.8
2017-06-08T01:54:15.634Z,10.77
2017-06-08T01:55:25.893Z,10.77
2017-06-08T01:56:36.152Z,10.69
2017-06-08T01:57:46.093Z,10.69
2017-06-08T01:58:56.348Z,10.83
2017-06-08T02:00:06.612Z,10.76
2017-06-08T02:01:16.559Z,10.72
2017-06-08T02:02:26.817Z,10.67
2017-06-08T02:03:37.077Z,10.69
2017-06-08T02:04:47.336Z,10.67
2017-06-08T02:05:57.592Z,10.69
2017-06-08T02:07:07.548Z,10.69
2017-06-08T02:08:17.495Z,10.67
2017-06-08T02:09:28.051Z,10.76
2017-06-08T02:10:38.306Z,10.76
2017-06-08T02:11:47.938Z,10.72
2017-06-08T02:12:58.200Z,10.75
2017-06-08T02:14:08.461Z,10.68
2017-06-08T02:15:18.111Z,10.68
2017-06-08T02:16:28.417Z,10.72
2017-06-08T02:17:38.051Z,10.69
2017-06-08T02:18:47.996Z,10.67
2017-06-08T02:19:58.250Z,10.64
2017-06-08T02:21:08.715Z,10.75
2017-06-08T02:22:18.976Z,10.67
2017-06-08T02:23:29.235Z,10.69
2017-06-08T02:24:44.524Z,10.71
2017-06-08T02:25:54.795Z,10.71
2017-06-08T02:27:05.047Z,10.71
2017-06-08T02:28:15.028Z,10.67
2017-06-08T02:29:25.288Z,10.65
2017-06-08T02:30:35.552Z,10.67
2017-06-08T02:31:45.807Z,10.65
2017-06-08T02:32:56.062Z,10.64
2017-06-08T02:34:06.327Z,10.58
2017-06-08T02:35:16.269Z,10.59
2017-06-08T02:36:26.531Z,10.59
2017-06-08T02:37:36.165Z,10.57
2017-06-08T02:38:46.105Z,10.58
2017-06-08T02:39:56.364Z,10.61
2017-06-08T02:41:06.317Z,10.57
2017-06-08T02:42:16.575Z,10.57
2017-06-08T02:43:26.874Z,10.57
2017-06-08T02:44:37.133Z,10.57
2017-06-08T02:45:47.082Z,10.65
2017-06-08T02:46:57.345Z,10.71
2017-06-08T02:48:07.602Z,10.64
2017-06-08T02:49:17.869Z,10.57
2017-06-08T02:50:28.131Z,10.58
2017-06-08T02:51:38.390Z,10.68
2017-06-08T02:52:48.340Z,10.64
2017-06-08T02:53:58.600Z,10.64
2017-06-08T02:55:08.548Z,10.67
2017-06-08T02:56:18.493Z,10.69
2017-06-08T02:57:28.747Z,10.65
2017-06-08T02:58:39.013Z,10.69
2017-06-08T02:59:49.273Z,10.72
2017-06-08T03:00:59.546Z,10.71
2017-06-08T03:02:09.536Z,10.76
2017-06-08T03:03:19.485Z,10.75
2017-06-08T03:04:29.738Z,10.67
2017-06-08T03:05:40.038Z,10.71
2017-06-08T03:06:49.982Z,10.69
2017-06-08T03:08:00.252Z,10.65
2017-06-08T03:09:10.199Z,10.69
2017-06-08T03:10:20.458Z,10.68
2017-06-08T03:11:30.409Z,10.68
2017-06-08T03:12:40.669Z,10.79
2017-06-08T03:13:50.933Z,10.71
2017-06-08T03:15:01.193Z,10.77
2017-06-08T03:16:11.468Z,10.67
2017-06-08T03:17:21.417Z,10.79
2017-06-08T03:18:31.683Z,10.79
2017-06-08T03:19:41.938Z,10.65
2017-06-08T03:20:51.876Z,10.69
2017-06-08T03:22:01.825Z,10.79
2017-06-08T03:23:12.120Z,10.72
2017-06-08T03:24:22.066Z,10.77
2017-06-08T03:25:32.322Z,10.67
2017-06-08T03:26:42.577Z,10.69
2017-06-08T03:27:52.838Z,10.69
2017-06-08T03:29:03.103Z,10.71
2017-06-08T03:30:13.363Z,10.69
2017-06-08T03:31:23.310Z,10.83
2017-06-08T03:32:33.573Z,10.75
2017-06-08T03:33:43.829Z,10.67
2017-06-08T03:34:53.778Z,10.72
2017-06-08T03:36:03.725Z,10.83
2017-06-08T03:37:13.999Z,10.71
2017-06-08T03:38:24.307Z,10.77
2017-06-08T03:39:34.255Z,10.69
2017-06-08T03:40:44.510Z,10.8
2017-06-08T03:41:54.144Z,10.69
2017-06-08T03:43:04.403Z,10.79
2017-06-08T03:44:14.672Z,10.69
2017-06-08T03:45:24.928Z,10.72
2017-06-08T03:46:35.189Z,10.67
2017-06-08T03:47:45.141Z,10.79
2017-06-08T03:48:55.412Z,10.76
2017-06-08T03:50:05.663Z,10.72
2017-06-08T03:51:15.922Z,10.77
2017-06-08T03:52:25.868Z,10.84
2017-06-08T03:53:35.822Z,10.83
2017-06-08T03:54:45.773Z,10.92
2017-06-08T03:55:56.033Z,10.86
2017-06-08T03:57:05.976Z,10.97
2017-06-08T03:58:15.921Z,10.86
2017-06-08T03:59:25.862Z,11.04
2017-06-08T04:00:36.120Z,11.05
2017-06-08T04:01:46.377Z,11.02
2017-06-08T04:02:56.635Z,11.01
2017-06-08T04:04:06.898Z,11.07
2017-06-08T04:05:17.154Z,11
2017-06-08T04:06:27.419Z,11.1
2017-06-08T04:07:37.682Z,11.12
2017-06-08T04:08:47.943Z,11.08
2017-06-08T04:09:58.210Z,11.15
2017-06-08T04:11:08.482Z,11.13
2017-06-08T04:12:18.425Z,11.1
2017-06-08T04:13:28.685Z,11.13
2017-06-08T04:14:38.945Z,11.07
2017-06-08T04:15:48.927Z,11.2
2017-06-08T04:16:59.183Z,11.19
2017-06-08T04:18:09.478Z,11.25
2017-06-08T04:19:19.423Z,11.26
2017-06-08T04:20:29.721Z,11.25
2017-06-08T04:21:39.986Z,11.26
2017-06-08T04:22:50.258Z,11.25
2017-06-08T04:24:00.523Z,11.3
2017-06-08T04:25:10.785Z,11.25
2017-06-08T04:26:21.049Z,11.33
2017-06-08T04:27:31.314Z,11.27
2017-06-08T04:28:41.261Z,11.23
2017-06-08T04:29:51.518Z,11.25
2017-06-08T04:31:01.771Z,11.22
2017-06-08T04:32:12.030Z,11.26
2017-06-08T04:33:22.293Z,11.26
2017-06-08T04:34:32.586Z,11.26
2017-06-08T04:35:42.851Z,11.26
2017-06-08T04:36:53.114Z,11.27
2017-06-08T04:38:03.371Z,11.26
2017-06-08T04:39:13.637Z,11.34
2017-06-08T04:40:23.901Z,11.35
2017-06-08T04:41:34.165Z,11.41
2017-06-08T04:42:44.423Z,11.37
2017-06-08T04:43:54.371Z,11.37
2017-06-08T04:45:04.662Z,11.44
2017-06-08T04:46:14.925Z,11.38
2017-06-08T04:47:25.185Z,11.37
2017-06-08T04:48:35.450Z,11.37
2017-06-08T04:49:45.710Z,11.48
2017-06-08T04:50:55.342Z,11.41
2017-06-08T04:52:05.603Z,11.38
2017-06-08T04:53:15.550Z,11.44
2017-06-08T04:54:25.816Z,11.44
2017-06-08T04:55:36.081Z,11.35
2017-06-08T04:56:46.030Z,11.4
2017-06-08T04:57:55.985Z,11.4
2017-06-08T04:59:05.933Z,11.41
2017-06-08T05:00:16.200Z,11.4
2017-06-08T05:01:26.453Z,11.35
2017-06-08T05:02:36.400Z,11.43
2017-06-08T05:03:46.655Z,11.31
2017-06-08T05:04:56.657Z,11.35
2017-06-08T05:06:06.917Z,11.38
2017-06-08T05:07:16.859Z,11.3
2017-06-08T05:08:27.118Z,11.22
2017-06-08T05:09:37.387Z,11.22
2017-06-08T05:10:47.334Z,11.3
2017-06-08T05:11:57.593Z,11.26
2017-06-08T05:13:07.858Z,11.33
2017-06-08T05:14:17.806Z,11.31
2017-06-08T05:15:28.070Z,11.3
2017-06-08T05:16:40.329Z,11.27
2017-06-08T05:17:50.273Z,11.26
2017-06-08T05:19:00.531Z,11.22
2017-06-08T05:20:10.792Z,11.27
2017-06-08T05:21:21.050Z,11.25
2017-06-08T05:22:31.311Z,11.33
2017-06-08T05:23:41.586Z,11.3
2017-06-08T05:24:51.846Z,11.25
2017-06-08T05:26:02.104Z,11.26
2017-06-08T05:27:12.368Z,11.26
2017-06-08T05:28:22.001Z,11.27
2017-06-08T05:29:31.949Z,11.3
2017-06-08T05:30:42.212Z,11.3
2017-06-08T05:31:52.477Z,11.3
2017-06-08T05:33:02.421Z,11.31
2017-06-08T05:34:12.376Z,11.31
2017-06-08T05:35:22.634Z,11.26
2017-06-08T05:36:32.582Z,11.16
2017-06-08T05:37:42.525Z,11.26
2017-06-08T05:38:52.788Z,11.2
2017-06-08T05:40:03.044Z,11.19
2017-06-08T05:41:12.675Z,11.22
2017-06-08T05:42:22.626Z,11.19
2017-06-08T05:43:32.891Z,11.15
2017-06-08T05:44:43.160Z,11.23
2017-06-08T05:45:53.423Z,11.23
2017-06-08T05:47:03.683Z,11.2
2017-06-08T05:48:13.966Z,11.22
2017-06-08T05:49:24.225Z,11.13
2017-06-08T05:50:34.181Z,11.2
2017-06-08T05:51:44.444Z,11.16
2017-06-08T05:52:54.397Z,11.13
2017-06-08T05:54:04.660Z,11.16
2017-06-08T05:55:14.917Z,11.08
2017-06-08T05:56:24.860Z,11.15
2017-06-08T05:57:35.120Z,11.12
2017-06-08T05:58:45.377Z,11.15
2017-06-08T05:59:55.337Z,11.07
2017-06-08T06:01:05.603Z,11.12
2017-06-08T06:02:15.556Z,11.08
2017-06-08T06:03:25.820Z,11.22
2017-06-08T06:04:36.079Z,11.19
2017-06-08T06:05:46.025Z,11.13
2017-06-08T06:06:56.291Z,11.19
2017-06-08T06:08:06.548Z,11.13
2017-06-08T06:09:16.490Z,11.12
2017-06-08T06:10:26.474Z,11.13
2017-06-08T06:11:36.732Z,11.13
2017-06-08T06:12:46.367Z,11.1
2017-06-08T06:13:56.653Z,11.1
2017-06-08T06:15:06.948Z,11.13
2017-06-08T06:16:16.583Z,11.18
2017-06-08T06:17:26.844Z,11.07
2017-06-08T06:18:37.099Z,11.04
2017-06-08T06:19:47.357Z,11.1
2017-06-08T06:20:57.619Z,11.1
2017-06-08T06:22:07.880Z,11.1
2017-06-08T06:23:17.511Z,11.16
2017-06-08T06:24:27.774Z,11.05
2017-06-08T06:25:37.719Z,11.1
2017-06-08T06:26:47.979Z,11.12
2017-06-08T06:27:57.649Z,11.08
2017-06-08T06:29:07.907Z,11.15
2017-06-08T06:30:17.856Z,11.1
2017-06-08T06:31:28.112Z,11.12
2017-06-08T06:32:37.739Z,11.07
2017-06-08T06:33:48.004Z,11.16
2017-06-08T06:34:57.951Z,11.12
2017-06-08T06:36:07.588Z,11.18
2017-06-08T06:37:17.855Z,11.19
2017-06-08T06:38:28.119Z,11.13
2017-06-08T06:39:38.378Z,11.1
2017-06-08T06:40:48.675Z,11.22
2017-06-08T06:41:58.630Z,11.2
2017-06-08T06:43:08.576Z,11.22
2017-06-08T06:44:18.837Z,11.22
2017-06-08T06:45:28.793Z,11.25
2017-06-08T06:46:39.058Z,11.26
2017-06-08T06:47:49.007Z,11.3
2017-06-08T06:48:59.279Z,11.3
2017-06-08T06:50:09.228Z,11.19
2017-06-08T06:51:19.488Z,11.23
2017-06-08T06:52:29.754Z,11.23
2017-06-08T06:53:40.021Z,11.23
2017-06-08T06:54:50.279Z,11.3
2017-06-08T06:56:00.540Z,11.34
2017-06-08T06:57:10.165Z,11.34
2017-06-08T06:58:20.105Z,11.43
2017-06-08T06:59:30.370Z,11.35
2017-06-08T07:00:40.628Z,11.38
2017-06-08T07:01:50.962Z,11.41
2017-06-08T07:03:01.232Z,11.52
2017-06-08T07:04:11.181Z,11.49
2017-06-08T07:05:21.443Z,11.58
2017-06-08T07:06:31.072Z,11.58
2017-06-08T07:07:41.018Z,11.62
2017-06-08T07:08:51.274Z,11.63
2017-06-08T07:10:01.535Z,11.71
2017-06-08T07:11:11.485Z,11.68
2017-06-08T07:12:20.808Z,11.77
2017-06-08T07:13:31.063Z,11.91
2017-06-08T07:14:40.692Z,11.91
2017-06-08T07:15:50.964Z,11.89
2017-06-08T07:17:00.910Z,11.86
2017-06-08T07:18:11.166Z,11.95
2017-06-08T07:19:20.485Z,11.93
2017-06-08T07:20:30.741Z,11.96
2017-06-08T07:21:41.006Z,11.93
2017-06-08T07:22:50.952Z,11.95
2017-06-08T07:24:01.217Z,11.97
2017-06-08T07:25:11.165Z,12.03
2017-06-08T07:26:21.113Z,12.02
2017-06-08T07:27:31.382Z,12.11
2017-06-08T07:28:41.641Z,12.11
2017-06-08T07:29:51.586Z,12.11
2017-06-08T07:31:01.847Z,12.08
2017-06-08T07:32:12.138Z,12.15
2017-06-08T07:33:22.402Z,12.12
2017-06-08T07:34:32.666Z,12.03
2017-06-08T07:35:42.926Z,11.96
2017-06-08T07:36:52.553Z,11.99
2017-06-08T07:38:02.819Z,11.95
2017-06-08T07:39:12.451Z,12.02
2017-06-08T07:40:22.708Z,12.18
2017-06-08T07:41:32.974Z,12.21
2017-06-08T07:42:43.242Z,12.26
2017-06-08T07:43:53.189Z,12.39
2017-06-08T07:45:03.449Z,12.37
2017-06-08T07:46:13.399Z,12.51
2017-06-08T07:47:23.348Z,12.61
2017-06-08T07:48:33.293Z,12.68
2017-06-08T07:49:42.926Z,12.75
2017-06-08T07:50:53.204Z,12.75
2017-06-08T07:52:03.469Z,12.78
2017-06-08T07:53:13.102Z,12.83
2017-06-08T07:54:22.771Z,12.76
2017-06-08T07:55:32.714Z,12.8
2017-06-08T07:56:42.984Z,12.8
2017-06-08T07:57:53.247Z,12.9
2017-06-08T07:59:03.507Z,12.88
2017-06-08T08:00:13.776Z,12.98
2017-06-08T08:01:24.093Z,12.99
2017-06-08T08:02:34.354Z,12.93
2017-06-08T08:03:44.613Z,13.02
2017-06-08T08:04:54.875Z,13.02
2017-06-08T08:06:05.171Z,13.05
2017-06-08T08:07:15.446Z,13.11
2017-06-08T08:08:25.715Z,13.21
2017-06-08T08:09:35.981Z,13.31
2017-06-08T08:10:46.246Z,13.26
2017-06-08T08:11:56.511Z,13.33
2017-06-08T08:13:06.462Z,13.42
2017-06-08T08:14:16.736Z,13.39
2017-06-08T08:15:26.996Z,13.5
2017-06-08T08:16:37.267Z,13.5
2017-06-08T08:17:47.530Z,13.54
2017-06-08T08:18:57.793Z,13.5
2017-06-08T08:20:07.479Z,13.47
2017-06-08T08:21:17.755Z,13.4
2017-06-08T08:22:27.707Z,13.31
2017-06-08T08:23:37.979Z,13.33
2017-06-08T08:24:48.241Z,13.37
2017-06-08T08:25:58.208Z,13.24
2017-06-08T08:27:08.518Z,13.31
2017-06-08T08:28:18.777Z,13.26
2017-06-08T08:29:29.044Z,13.21
2017-06-08T08:30:39.358Z,13.24
2017-06-08T08:31:49.314Z,13.3
2017-06-08T08:32:59.659Z,13.23
2017-06-08T08:34:09.928Z,13.16
2017-06-08T08:35:20.193Z,13.13
2017-06-08T08:36:30.463Z,13.19
2017-06-08T08:37:40.729Z,13.17
2017-06-08T08:38:50.985Z,13.17
2017-06-08T08:40:01.255Z,13.17
2017-06-08T08:41:11.201Z,13.23
2017-06-08T08:42:21.148Z,13.23
2017-06-08T08:43:30.774Z,13.28
2017-06-08T08:44:40.724Z,13.26
2017-06-08T08:45:50.988Z,13.3
2017-06-08T08:47:00.937Z,13.31
2017-06-08T08:48:10.887Z,13.23
2017-06-08T08:49:21.156Z,13.16
2017-06-08T08:50:30.793Z,13.2
2017-06-08T08:51:41.054Z,13.21
2017-06-08T08:52:51.319Z,13.21
2017-06-08T08:54:01.580Z,13.26
2017-06-08T08:55:11.525Z,13.16
2017-06-08T08:56:21.486Z,13.17
2017-06-08T08:57:31.439Z,13.19
2017-06-08T08:58:41.704Z,13.16
2017-06-08T08:59:51.656Z,13.16
2017-06-08T09:01:01.918Z,12.99
2017-06-08T09:02:11.873Z,13.05
2017-06-08T09:03:21.818Z,12.93
2017-06-08T09:04:32.076Z,12.98
2017-06-08T09:05:42.344Z,12.93
2017-06-08T09:06:52.292Z,12.99
2017-06-08T09:08:02.248Z,12.87
2017-06-08T09:09:12.195Z,12.88
2017-06-08T09:10:22.146Z,12.87
2017-06-08T09:11:32.106Z,12.84
2017-06-08T09:12:42.376Z,12.78
2017-06-08T09:13:52.325Z,12.8
2017-06-08T09:15:02.278Z,12.83
2017-06-08T09:16:12.226Z,12.8
2017-06-08T09:17:22.374Z,12.8
2017-06-08T09:18:32.649Z,12.8
2017-06-08T09:19:42.917Z,12.7
2017-06-08T09:20:52.864Z,12.88
2017-06-08T09:22:02.809Z,12.94
2017-06-08T09:23:12.753Z,13.09
2017-06-08T09:24:23.023Z,13.27
2017-06-08T09:25:33.287Z,13.42
2017-06-08T09:26:43.557Z,13.47
2017-06-08T09:27:53.826Z,13.52
2017-06-08T09:29:04.097Z,13.67
2017-06-08T09:30:14.361Z,13.62
2017-06-08T09:31:24.634Z,13.62
2017-06-08T09:32:34.899Z,13.7
2017-06-08T09:33:44.855Z,13.7
2017-06-08T09:34:54.808Z,13.89
2017-06-08T09:36:04.757Z,13.82
2017-06-08T09:37:14.711Z,13.85
2017-06-08T09:38:24.973Z,13.89
2017-06-08T09:39:34.921Z,13.95
2017-06-08T09:40:45.184Z,13.95
2017-06-08T09:41:55.139Z,14
2017-06-08T09:43:05.436Z,13.95
2017-06-08T09:44:15.705Z,13.89
2017-06-08T09:45:25.968Z,13.93
2017-06-08T09:46:36.232Z,13.94
2017-06-08T09:47:46.498Z,14.15
2017-06-08T09:48:56.444Z,14.18
2017-06-08T09:50:06.401Z,14.33
2017-06-08T09:51:16.350Z,14.36
2017-06-08T09:52:26.610Z,14.51
2017-06-08T09:53:36.558Z,14.55
2017-06-08T09:54:46.511Z,14.74
2017-06-08T09:55:56.460Z,14.81
2017-06-08T09:57:06.726Z,14.92
2017-06-08T09:58:16.989Z,14.85
2017-06-08T09:59:27.251Z,14.97
2017-06-08T10:00:37.518Z,15.12
2017-06-08T10:01:47.466Z,15.22
2017-06-08T10:02:57.736Z,15.26
2017-06-08T10:04:08.002Z,15.27
2017-06-08T10:05:17.949Z,15.39
2017-06-08T10:06:28.220Z,15.25
2017-06-08T10:07:38.482Z,15.19
2017-06-08T10:08:48.733Z,15.5
2017-06-08T10:09:59.482Z,15.59
2017-06-08T10:11:09.950Z,15.75
2017-06-08T10:12:21.079Z,15.91
2017-06-08T10:13:33.389Z,16.03
2017-06-08T10:14:44.482Z,15.88
2017-06-08T10:15:55.239Z,15.84
2017-06-08T10:17:05.423Z,15.91
2017-06-08T10:18:15.694Z,15.81
2017-06-08T10:19:25.955Z,15.94
2017-06-08T10:20:36.223Z,15.99
2017-06-08T10:21:46.515Z,15.99
2017-06-08T10:22:56.153Z,16.12
2017-06-08T10:24:06.417Z,16.13
2017-06-08T10:25:16.377Z,16.18
2017-06-08T10:26:26.644Z,16.09
2017-06-08T10:27:36.602Z,16.18
2017-06-08T10:28:46.864Z,16.05
2017-06-08T10:29:56.826Z,16.16
2017-06-08T10:31:07.091Z,16.1
2017-06-08T10:32:17.360Z,16.02
2017-06-08T10:33:27.317Z,16.1
2017-06-08T10:34:37.577Z,15.98
2017-06-08T10:35:47.835Z,15.92
2017-06-08T10:36:58.135Z,16.13
2017-06-08T10:38:08.409Z,16.09
2017-06-08T10:39:18.679Z,16.28
2017-06-08T10:40:28.626Z,16.37
2017-06-08T10:41:38.631Z,16.31
2017-06-08T10:42:48.899Z,16.34
2017-06-08T10:43:59.161Z,16.39
2017-06-08T10:45:09.430Z,16.4
2017-06-08T10:46:19.699Z,16.51
2017-06-08T10:47:29.964Z,16.69
2017-06-08T10:48:40.233Z,16.64
2017-06-08T10:49:50.500Z,16.62
2017-06-08T10:51:00.779Z,16.77
2017-06-08T10:52:10.432Z,16.97
2017-06-08T10:53:20.706Z,16.84
2017-06-08T10:54:30.974Z,16.84
2017-06-08T10:55:41.244Z,16.73
2017-06-08T10:56:51.507Z,16.69
2017-06-08T10:58:01.454Z,16.72
2017-06-08T10:59:11.718Z,16.62
2017-06-08T11:00:21.359Z,16.73
2017-06-08T11:01:31.638Z,16.73
2017-06-08T11:02:41.907Z,16.68
2017-06-08T11:03:51.868Z,16.74
2017-06-08T11:05:02.138Z,16.72
2017-06-08T11:06:12.405Z,16.58
2017-06-08T11:07:22.668Z,16.62
2017-06-08T11:08:32.936Z,16.64
2017-06-08T11:09:43.205Z,16.57
2017-06-08T11:10:53.159Z,16.65
2017-06-08T11:12:03.118Z,16.5
2017-06-08T11:13:13.070Z,16.51
2017-06-08T11:14:23.339Z,16.61
2017-06-08T11:15:33.300Z,16.68
2017-06-08T11:16:43.259Z,16.58
2017-06-08T11:17:53.211Z,16.62
2017-06-08T11:19:03.481Z,16.54
2017-06-08T11:20:13.123Z,16.55
2017-06-08T11:21:23.398Z,16.54
2017-06-08T11:22:33.361Z,16.66
2017-06-08T11:23:43.624Z,16.74
2017-06-08T11:24:53.893Z,16.74
2017-06-08T11:26:03.845Z,16.82
2017-06-08T11:27:14.128Z,16.89
2017-06-08T11:28:24.088Z,16.97
2017-06-08T11:29:34.354Z,16.97
2017-06-08T11:30:44.622Z,16.92
2017-06-08T11:31:54.889Z,16.89
2017-06-08T11:33:04.840Z,16.87
2017-06-08T11:34:15.105Z,16.83
2017-06-08T11:35:25.377Z,16.87
2017-06-08T11:36:35.638Z,16.84
2017-06-08T11:37:45.910Z,16.82
2017-06-08T11:38:56.183Z,16.94
2017-06-08T11:40:05.825Z,17.04
2017-06-08T11:41:16.129Z,17.13
2017-06-08T11:42:26.398Z,17.27
2017-06-08T11:43:36.344Z,17.37
2017-06-08T11:44:46.303Z,17.73
2017-06-08T11:45:56.254Z,18.37
2017-06-08T11:47:06.524Z,18.6
2017-06-08T11:48:16.788Z,19.41
2017-06-08T11:49:26.746Z,20.3
2017-06-08T11:50:37.023Z,20.83
2017-06-08T11:51:46.980Z,21.38
2017-06-08T11:52:57.253Z,21.63
2017-06-08T11:54:07.531Z,21.88
2017-06-08T11:55:17.806Z,21.81
2017-06-08T11:56:27.777Z,21.75
2017-06-08T11:57:38.054Z,21.85
2017-06-08T11:58:48.329Z,21.58
2017-06-08T12:00:01.779Z,21.47
2017-06-08T12:01:11.741Z,21.37
2017-06-08T12:02:21.391Z,21.1
2017-06-08T12:03:31.662Z,21
2017-06-08T12:04:41.934Z,20.83
2017-06-08T12:05:52.208Z,20.8
2017-06-08T12:07:02.165Z,20.46
2017-06-08T12:08:12.139Z,20.12
2017-06-08T12:09:22.420Z,19.97
2017-06-08T12:10:32.697Z,19.6
2017-06-08T12:11:42.966Z,19.67
2017-06-08T12:12:53.232Z,19.41
2017-06-08T12:14:03.502Z,19.22
2017-06-08T12:15:13.764Z,19.24
2017-06-08T12:16:24.031Z,19
2017-06-08T12:17:34.292Z,19.04
2017-06-08T12:18:44.563Z,19.01
2017-06-08T12:19:54.848Z,18.88
2017-06-08T12:21:05.118Z,18.89
2017-06-08T12:22:15.396Z,18.89
2017-06-08T12:23:25.052Z,18.83
2017-06-08T12:24:35.320Z,18.61
2017-06-08T12:25:45.598Z,18.58
2017-06-08T12:26:55.868Z,18.67
2017-06-08T12:28:06.143Z,18.74
2017-06-08T12:29:16.435Z,18.79
2017-06-08T12:30:26.391Z,18.83
2017-06-08T12:31:36.345Z,18.79
2017-06-08T12:32:46.619Z,18.91
2017-06-08T12:33:56.891Z,18.88
2017-06-08T12:35:07.167Z,18.89
2017-06-08T12:36:16.809Z,19.01
2017-06-08T12:37:27.080Z,19.19
2017-06-08T12:38:37.036Z,19.16
2017-06-08T12:39:47.315Z,19.52
2017-06-08T12:40:57.581Z,19.71
2017-06-08T12:42:07.860Z,19.84
2017-06-08T12:43:17.819Z,20
2017-06-08T12:44:28.094Z,20.14
2017-06-08T12:45:38.054Z,20.08
2017-06-08T12:46:48.010Z,20.15
2017-06-08T12:47:57.966Z,20.19
2017-06-08T12:49:07.924Z,20.44
2017-06-08T12:50:18.202Z,20.63
2017-06-08T12:51:28.470Z,20.77
2017-06-08T12:52:38.744Z,20.88
2017-06-08T12:53:48.701Z,21
2017-06-08T12:54:58.974Z,21.11
2017-06-08T12:56:09.242Z,21.4
2017-06-08T12:57:19.514Z,21.68
2017-06-08T12:58:29.783Z,21.63
2017-06-08T12:59:40.058Z,21.74
2017-06-08T13:00:50.330Z,21.89
2017-06-08T13:02:00.286Z,21.77
2017-06-08T13:03:10.268Z,22.08
2017-06-08T13:04:20.540Z,22.18
2017-06-08T13:05:30.503Z,22.46
2017-06-08T13:06:40.778Z,22.55
2017-06-08T13:07:50.742Z,22.52
2017-06-08T13:09:01.015Z,22.52
2017-06-08T13:10:11.293Z,22.44
2017-06-08T13:11:21.419Z,22.34
2017-06-08T13:12:31.686Z,22.19
2017-06-08T13:13:41.953Z,21.85
2017-06-08T13:14:52.226Z,21.5
2017-06-08T13:16:02.608Z,21.32
2017-06-08T13:17:12.903Z,21.14
2017-06-08T13:18:23.174Z,21.07
2017-06-08T13:19:33.123Z,20.9
2017-06-08T13:20:43.395Z,20.64
2017-06-08T13:21:53.354Z,20.39
2017-06-08T13:23:03.630Z,20.3
2017-06-08T13:24:13.906Z,20.21
2017-06-08T13:25:23.872Z,20.18
2017-06-08T13:26:34.135Z,20.32
2017-06-08T13:27:44.409Z,20.78
2017-06-08T13:28:54.679Z,21.05
2017-06-08T13:30:04.952Z,21.32
2017-06-08T13:31:15.217Z,21.75
2017-06-08T13:32:25.489Z,22.31
2017-06-08T13:33:35.758Z,22.78
2017-06-08T13:34:45.714Z,23.54
2017-06-08T13:35:55.982Z,24.37
2017-06-08T13:37:06.262Z,25.06
2017-06-08T13:38:16.540Z,25.83
2017-06-08T13:39:26.812Z,26.16
2017-06-08T13:40:37.090Z,26.19
2017-06-08T13:41:47.365Z,26.7
2017-06-08T13:42:57.641Z,27
2017-06-08T13:44:07.918Z,27.29
2017-06-08T13:45:18.193Z,27.52
2017-06-08T13:46:28.468Z,27.94
2017-06-08T13:47:38.434Z,28.53
2017-06-08T13:48:48.392Z,29.24
2017-06-08T13:49:58.669Z,29.89
2017-06-08T13:51:08.949Z,30.17
2017-06-08T13:52:19.232Z,30.49
2017-06-08T13:53:29.516Z,30.89
2017-06-08T13:54:39.488Z,31.29
2017-06-08T13:55:49.457Z,31.69
2017-06-08T13:56:59.748Z,31.74
2017-06-08T13:58:10.029Z,31.95
2017-06-08T13:59:19.993Z,31.67
2017-06-08T14:00:29.952Z,30.91
2017-06-08T14:01:39.614Z,30.71
2017-06-08T14:02:49.896Z,30.16
2017-06-08T14:04:00.176Z,29.35
2017-06-08T14:05:10.146Z,28.96
2017-06-08T14:06:20.423Z,28.46
2017-06-08T14:07:30.385Z,28.15
2017-06-08T14:08:40.349Z,27.64
2017-06-08T14:09:50.347Z,27.1
2017-06-08T14:11:00.311Z,26.71
2017-06-08T14:12:09.963Z,26.24
2017-06-08T14:13:19.927Z,25.55
2017-06-08T14:14:30.239Z,25.18
2017-06-08T14:15:40.516Z,24.69
2017-06-08T14:16:50.794Z,24.36
2017-06-08T14:18:01.072Z,24.01
2017-06-08T14:19:11.034Z,23.84
2017-06-08T14:20:21.316Z,23.54
2017-06-08T14:21:31.589Z,23.2
2017-06-08T14:22:41.863Z,22.95
2017-06-08T14:23:52.134Z,22.84
2017-06-08T14:25:01.775Z,22.44
2017-06-08T14:26:12.051Z,22.1
2017-06-08T14:27:22.320Z,21.83
2017-06-08T14:28:32.310Z,21.58
2017-06-08T14:29:42.580Z,21.41
2017-06-08T14:30:52.856Z,21.1
2017-06-08T14:32:03.129Z,20.96
2017-06-08T14:33:13.401Z,20.58
2017-06-08T14:34:23.669Z,20.29
2017-06-08T14:35:33.933Z,20.29
2017-06-08T14:36:44.215Z,20.19
2017-06-08T14:37:54.484Z,19.99
2017-06-08T14:39:04.757Z,19.92
2017-06-08T14:40:15.030Z,19.82
2017-06-08T14:41:25.299Z,19.89
2017-06-08T14:42:34.941Z,19.72
2017-06-08T14:43:45.208Z,19.72
2017-06-08T14:44:55.472Z,19.63
2017-06-08T14:46:05.741Z,19.82
2017-06-08T14:47:16.020Z,19.78
2017-06-08T14:48:26.300Z,19.81
2017-06-08T14:49:36.257Z,19.9
2017-06-08T14:50:46.212Z,19.78
2017-06-08T14:51:56.483Z,19.92
2017-06-08T14:53:06.755Z,19.96
2017-06-08T14:54:17.024Z,19.81
2017-06-08T14:55:27.291Z,19.81
2017-06-08T14:56:37.563Z,19.7
2017-06-08T14:57:47.830Z,19.67
2017-06-08T14:58:58.104Z,19.63
2017-06-08T15:00:08.064Z,19.59
2017-06-08T15:01:18.330Z,19.52
2017-06-08T15:02:28.281Z,19.45
2017-06-08T15:03:38.544Z,19.57
2017-06-08T15:04:48.817Z,19.62
2017-06-08T15:05:59.080Z,19.74
2017-06-08T15:07:09.045Z,19.79